sensor_id;sensor_type;location;lat;lon;timestamp;pressure;altitude;pressure_sealevel;temperature;humidity
64292;BME280;50628;51.008;13.658;2022-09-09T00:04:26;99304.13;;;14.88;100.00
64292;BME280;50628;51.008;13.658;2022-09-09T00:09:31;99305.94;;;14.80;100.00
64292;BME280;50628;51.008;13.658;2022-09-09T00:14:45;99303.47;;;14.78;100.00
64292;BME280;50628;51.008;13.658;2022-09-09T00:19:56;99291.34;;;14.77;100.00
64292;BME280;50628;51.008;13.658;2022-09-09T00:25:08;99293.97;;;14.77;100.00
64292;BME280;50628;51.008;13.658;2022-09-09T00:30:18;99291.03;;;14.80;100.00
64292;BME280;50628;51.008;13.658;2022-09-09T00:35:25;99292.31;;;14.76;100.00
64292;BME280;50628;51.008;13.658;2022-09-09T00:40:32;99285.31;;;14.85;100.00
64292;BME280;50628;51.008;13.658;2022-09-09T00:45:52;99282.03;;;14.91;100.00
64292;BME280;50628;51.008;13.658;2022-09-09T00:51:01;99285.44;;;14.91;100.00
64292;BME280;50628;51.008;13.658;2022-09-09T00:56:12;99296.59;;;14.85;100.00
64292;BME280;50628;51.008;13.658;2022-09-09T01:01:16;99304.59;;;14.84;100.00
64292;BME280;50628;51.008;13.658;2022-09-09T01:06:22;99290.84;;;14.74;100.00
64292;BME280;50628;51.008;13.658;2022-09-09T01:11:33;99301.31;;;14.65;100.00
64292;BME280;50628;51.008;13.658;2022-09-09T01:16:40;99308.19;;;14.66;100.00
64292;BME280;50628;51.008;13.658;2022-09-09T01:21:51;99307.19;;;14.59;100.00
64292;BME280;50628;51.008;13.658;2022-09-09T01:27:01;99299.50;;;14.66;100.00
64292;BME280;50628;51.008;13.658;2022-09-09T01:37:41;99292.50;;;14.75;100.00
64292;BME280;50628;51.008;13.658;2022-09-09T01:42:44;99297.53;;;14.68;100.00
64292;BME280;50628;51.008;13.658;2022-09-09T01:47:46;99295.00;;;13.73;100.00
64292;BME280;50628;51.008;13.658;2022-09-09T01:53:08;99299.25;;;13.66;100.00
64292;BME280;50628;51.008;13.658;2022-09-09T01:58:19;99294.31;;;13.63;100.00
64292;BME280;50628;51.008;13.658;2022-09-09T02:03:29;99284.53;;;13.99;100.00
64292;BME280;50628;51.008;13.658;2022-09-09T02:08:45;99286.22;;;13.48;100.00
64292;BME280;50628;51.008;13.658;2022-09-09T02:13:53;99288.63;;;13.24;100.00
64292;BME280;50628;51.008;13.658;2022-09-09T02:19:01;99297.69;;;13.11;100.00
64292;BME280;50628;51.008;13.658;2022-09-09T02:24:15;99300.44;;;13.10;100.00
64292;BME280;50628;51.008;13.658;2022-09-09T02:29:27;99303.66;;;13.04;100.00
64292;BME280;50628;51.008;13.658;2022-09-09T02:34:34;99306.09;;;13.05;100.00
64292;BME280;50628;51.008;13.658;2022-09-09T02:39:37;99297.81;;;13.10;100.00
64292;BME280;50628;51.008;13.658;2022-09-09T02:44:45;99299.84;;;13.16;100.00
64292;BME280;50628;51.008;13.658;2022-09-09T02:49:56;99305.22;;;12.96;100.00
64292;BME280;50628;51.008;13.658;2022-09-09T02:55:07;99303.78;;;13.20;100.00
64292;BME280;50628;51.008;13.658;2022-09-09T03:00:13;99299.91;;;13.06;100.00
64292;BME280;50628;51.008;13.658;2022-09-09T03:05:16;99304.22;;;12.97;100.00
64292;BME280;50628;51.008;13.658;2022-09-09T03:10:19;99301.41;;;13.09;100.00
64292;BME280;50628;51.008;13.658;2022-09-09T03:15:22;99315.59;;;13.06;100.00
64292;BME280;50628;51.008;13.658;2022-09-09T03:20:27;99318.50;;;13.03;100.00
64292;BME280;50628;51.008;13.658;2022-09-09T03:25:29;99308.19;;;13.19;100.00
64292;BME280;50628;51.008;13.658;2022-09-09T03:30:32;99291.41;;;13.66;100.00
64292;BME280;50628;51.008;13.658;2022-09-09T03:35:35;99296.00;;;13.46;100.00
64292;BME280;50628;51.008;13.658;2022-09-09T03:40:37;99300.53;;;13.18;100.00
64292;BME280;50628;51.008;13.658;2022-09-09T03:45:42;99305.28;;;13.05;100.00
64292;BME280;50628;51.008;13.658;2022-09-09T03:50:47;99301.47;;;13.17;100.00
64292;BME280;50628;51.008;13.658;2022-09-09T03:55:50;99306.19;;;13.13;100.00
64292;BME280;50628;51.008;13.658;2022-09-09T04:00:59;99302.16;;;13.01;100.00
64292;BME280;50628;51.008;13.658;2022-09-09T04:06:03;99304.34;;;13.06;100.00
64292;BME280;50628;51.008;13.658;2022-09-09T04:11:06;99312.53;;;13.11;100.00
64292;BME280;50628;51.008;13.658;2022-09-09T04:16:12;99318.56;;;13.11;100.00
64292;BME280;50628;51.008;13.658;2022-09-09T04:21:16;99315.06;;;13.03;100.00
64292;BME280;50628;51.008;13.658;2022-09-09T04:26:18;99310.59;;;13.13;100.00
64292;BME280;50628;51.008;13.658;2022-09-09T04:31:22;99317.91;;;13.27;100.00
64292;BME280;50628;51.008;13.658;2022-09-09T04:36:27;99307.31;;;13.29;100.00
64292;BME280;50628;51.008;13.658;2022-09-09T04:41:33;99321.47;;;13.26;100.00
64292;BME280;50628;51.008;13.658;2022-09-09T04:46:36;99318.44;;;13.13;100.00
64292;BME280;50628;51.008;13.658;2022-09-09T04:51:38;99313.81;;;13.07;100.00
64292;BME280;50628;51.008;13.658;2022-09-09T04:56:41;99321.06;;;13.13;100.00
64292;BME280;50628;51.008;13.658;2022-09-09T05:01:46;99323.06;;;13.01;100.00
64292;BME280;50628;51.008;13.658;2022-09-09T05:06:48;99325.59;;;13.11;100.00
64292;BME280;50628;51.008;13.658;2022-09-09T05:11:50;99320.94;;;13.23;100.00
64292;BME280;50628;51.008;13.658;2022-09-09T05:17:00;99317.25;;;13.43;100.00
64292;BME280;50628;51.008;13.658;2022-09-09T05:22:02;99328.78;;;13.40;100.00
64292;BME280;50628;51.008;13.658;2022-09-09T05:27:13;99330.50;;;13.50;100.00
64292;BME280;50628;51.008;13.658;2022-09-09T05:32:17;99343.19;;;13.62;100.00
64292;BME280;50628;51.008;13.658;2022-09-09T05:37:22;99340.59;;;13.71;100.00
64292;BME280;50628;51.008;13.658;2022-09-09T05:42:24;99351.84;;;13.89;100.00
64292;BME280;50628;51.008;13.658;2022-09-09T05:47:28;99343.13;;;14.06;100.00
64292;BME280;50628;51.008;13.658;2022-09-09T05:52:30;99356.59;;;14.20;100.00
64292;BME280;50628;51.008;13.658;2022-09-09T05:57:33;99348.84;;;14.44;100.00
64292;BME280;50628;51.008;13.658;2022-09-09T06:02:36;99350.72;;;14.60;100.00
64292;BME280;50628;51.008;13.658;2022-09-09T06:07:39;99354.56;;;14.82;100.00
64292;BME280;50628;51.008;13.658;2022-09-09T06:12:44;99349.00;;;15.02;100.00
64292;BME280;50628;51.008;13.658;2022-09-09T06:17:54;99351.00;;;15.00;100.00
64292;BME280;50628;51.008;13.658;2022-09-09T06:22:56;99348.56;;;15.14;100.00
64292;BME280;50628;51.008;13.658;2022-09-09T06:27:57;99343.78;;;15.34;100.00
64292;BME280;50628;51.008;13.658;2022-09-09T06:33:01;99342.81;;;15.52;100.00
64292;BME280;50628;51.008;13.658;2022-09-09T06:38:03;99354.78;;;15.63;100.00
64292;BME280;50628;51.008;13.658;2022-09-09T06:43:06;99350.00;;;15.66;100.00
64292;BME280;50628;51.008;13.658;2022-09-09T06:48:15;99353.91;;;15.95;100.00
64292;BME280;50628;51.008;13.658;2022-09-09T06:53:17;99355.69;;;16.02;100.00
64292;BME280;50628;51.008;13.658;2022-09-09T06:58:21;99340.88;;;16.26;100.00
64292;BME280;50628;51.008;13.658;2022-09-09T07:03:26;99346.63;;;16.61;100.00
64292;BME280;50628;51.008;13.658;2022-09-09T07:08:28;99341.75;;;16.89;100.00
64292;BME280;50628;51.008;13.658;2022-09-09T07:13:32;99324.91;;;16.98;100.00
64292;BME280;50628;51.008;13.658;2022-09-09T07:18:36;99336.63;;;17.34;100.00
64292;BME280;50628;51.008;13.658;2022-09-09T07:23:38;99335.44;;;17.59;100.00
64292;BME280;50628;51.008;13.658;2022-09-09T07:28:41;99322.25;;;17.97;100.00
64292;BME280;50628;51.008;13.658;2022-09-09T07:33:45;99320.50;;;18.19;100.00
64292;BME280;50628;51.008;13.658;2022-09-09T07:38:49;99328.88;;;18.59;100.00
64292;BME280;50628;51.008;13.658;2022-09-09T07:43:52;99334.03;;;18.82;99.02
64292;BME280;50628;51.008;13.658;2022-09-09T07:48:56;99333.91;;;19.12;97.37
64292;BME280;50628;51.008;13.658;2022-09-09T07:54:04;99331.31;;;19.40;96.06
64292;BME280;50628;51.008;13.658;2022-09-09T07:59:08;99354.19;;;19.76;98.62
64292;BME280;50628;51.008;13.658;2022-09-09T08:04:15;99355.16;;;19.68;94.65
64292;BME280;50628;51.008;13.658;2022-09-09T08:09:19;99352.50;;;19.46;95.71
64292;BME280;50628;51.008;13.658;2022-09-09T08:14:22;99362.19;;;19.39;98.17
64292;BME280;50628;51.008;13.658;2022-09-09T08:19:26;99352.19;;;19.35;97.63
64292;BME280;50628;51.008;13.658;2022-09-09T08:24:30;99357.88;;;19.60;97.66
64292;BME280;50628;51.008;13.658;2022-09-09T08:29:31;99357.09;;;19.87;94.58
64292;BME280;50628;51.008;13.658;2022-09-09T08:34:35;99360.44;;;20.03;90.42
64292;BME280;50628;51.008;13.658;2022-09-09T08:39:42;99366.22;;;20.20;91.90
64292;BME280;50628;51.008;13.658;2022-09-09T08:44:58;99364.22;;;20.22;90.77
64292;BME280;50628;51.008;13.658;2022-09-09T08:50:17;99366.72;;;20.43;88.62
64292;BME280;50628;51.008;13.658;2022-09-09T08:55:27;99374.69;;;20.50;88.14
64292;BME280;50628;51.008;13.658;2022-09-09T09:00:38;99372.16;;;20.28;87.02
64292;BME280;50628;51.008;13.658;2022-09-09T09:05:47;99376.59;;;20.21;88.27
64292;BME280;50628;51.008;13.658;2022-09-09T09:10:54;99381.72;;;19.95;89.14
64292;BME280;50628;51.008;13.658;2022-09-09T09:16:06;99386.09;;;19.81;94.25
64292;BME280;50628;51.008;13.658;2022-09-09T09:21:16;99395.22;;;19.57;95.99
64292;BME280;50628;51.008;13.658;2022-09-09T09:26:23;99383.03;;;19.34;100.00
64292;BME280;50628;51.008;13.658;2022-09-09T09:31:29;99386.63;;;19.48;100.00
64292;BME280;50628;51.008;13.658;2022-09-09T09:36:40;99390.69;;;19.72;99.40
64292;BME280;50628;51.008;13.658;2022-09-09T09:41:45;99383.22;;;20.04;97.55
64292;BME280;50628;51.008;13.658;2022-09-09T09:46:48;99381.59;;;20.09;95.99
64292;BME280;50628;51.008;13.658;2022-09-09T09:51:54;99386.03;;;20.37;94.28
64292;BME280;50628;51.008;13.658;2022-09-09T09:57:08;99382.16;;;20.74;92.63
64292;BME280;50628;51.008;13.658;2022-09-09T10:02:22;99378.97;;;20.99;89.52
64292;BME280;50628;51.008;13.658;2022-09-09T10:07:32;99366.19;;;21.29;88.52
64292;BME280;50628;51.008;13.658;2022-09-09T10:12:41;99354.81;;;21.55;90.41
64292;BME280;50628;51.008;13.658;2022-09-09T10:17:54;99361.09;;;21.74;88.53
64292;BME280;50628;51.008;13.658;2022-09-09T10:23:10;99354.38;;;21.72;90.73
64292;BME280;50628;51.008;13.658;2022-09-09T10:28:30;99353.34;;;21.86;90.06
64292;BME280;50628;51.008;13.658;2022-09-09T10:33:44;99338.69;;;21.77;88.77
64292;BME280;50628;51.008;13.658;2022-09-09T10:38:58;99342.94;;;21.98;81.89
64292;BME280;50628;51.008;13.658;2022-09-09T10:49:52;99316.28;;;22.83;79.59
64292;BME280;50628;51.008;13.658;2022-09-09T10:55:09;99311.56;;;22.92;77.07
64292;BME280;50628;51.008;13.658;2022-09-09T11:00:17;99312.78;;;23.21;74.88
64292;BME280;50628;51.008;13.658;2022-09-09T11:05:23;99311.84;;;22.38;74.07
64292;BME280;50628;51.008;13.658;2022-09-09T11:10:36;99310.03;;;22.32;73.45
64292;BME280;50628;51.008;13.658;2022-09-09T11:15:43;99314.94;;;22.29;80.52
64292;BME280;50628;51.008;13.658;2022-09-09T11:20:49;99316.16;;;22.33;78.65
64292;BME280;50628;51.008;13.658;2022-09-09T11:25:56;99315.50;;;22.37;77.41
64292;BME280;50628;51.008;13.658;2022-09-09T11:31:12;99307.41;;;22.25;76.10
64292;BME280;50628;51.008;13.658;2022-09-09T11:36:35;99298.84;;;22.17;78.95
64292;BME280;50628;51.008;13.658;2022-09-09T11:41:42;99294.88;;;21.88;83.43
64292;BME280;50628;51.008;13.658;2022-09-09T11:46:46;99294.72;;;21.63;84.10
64292;BME280;50628;51.008;13.658;2022-09-09T11:51:50;99297.66;;;22.58;86.78
64292;BME280;50628;51.008;13.658;2022-09-09T11:56:53;99298.09;;;23.18;73.69
64292;BME280;50628;51.008;13.658;2022-09-09T12:01:56;99277.53;;;23.82;71.81
64292;BME280;50628;51.008;13.658;2022-09-09T12:07:00;99288.06;;;23.89;67.41
64292;BME280;50628;51.008;13.658;2022-09-09T12:12:22;99279.53;;;22.86;81.37
64292;BME280;50628;51.008;13.658;2022-09-09T12:17:25;99269.03;;;22.73;79.97
64292;BME280;50628;51.008;13.658;2022-09-09T12:22:34;99269.44;;;22.38;82.89
64292;BME280;50628;51.008;13.658;2022-09-09T12:27:46;99277.56;;;22.43;84.09
64292;BME280;50628;51.008;13.658;2022-09-09T12:33:01;99273.88;;;22.44;86.12
64292;BME280;50628;51.008;13.658;2022-09-09T12:38:04;99266.78;;;22.32;86.02
64292;BME280;50628;51.008;13.658;2022-09-09T12:43:20;99264.84;;;23.59;74.30
64292;BME280;50628;51.008;13.658;2022-09-09T12:48:27;99265.09;;;24.43;73.27
64292;BME280;50628;51.008;13.658;2022-09-09T12:53:32;99257.88;;;24.50;57.73
64292;BME280;50628;51.008;13.658;2022-09-09T12:58:37;99260.16;;;24.47;51.07
64292;BME280;50628;51.008;13.658;2022-09-09T13:03:42;99250.19;;;23.93;52.62
64292;BME280;50628;51.008;13.658;2022-09-09T13:08:47;99237.44;;;25.16;51.30
64292;BME280;50628;51.008;13.658;2022-09-09T13:13:53;99241.94;;;25.39;49.07
64292;BME280;50628;51.008;13.658;2022-09-09T13:18:56;99233.22;;;25.09;47.20
64292;BME280;50628;51.008;13.658;2022-09-09T13:23:58;99227.22;;;24.90;46.21
64292;BME280;50628;51.008;13.658;2022-09-09T13:29:17;99228.91;;;24.42;46.16
64292;BME280;50628;51.008;13.658;2022-09-09T13:34:28;99225.22;;;24.43;48.10
64292;BME280;50628;51.008;13.658;2022-09-09T13:39:30;99229.47;;;24.14;51.17
64292;BME280;50628;51.008;13.658;2022-09-09T13:44:35;99245.59;;;23.64;53.93
64292;BME280;50628;51.008;13.658;2022-09-09T13:49:38;99233.50;;;23.86;52.91
64292;BME280;50628;51.008;13.658;2022-09-09T13:54:40;99241.09;;;23.64;53.91
64292;BME280;50628;51.008;13.658;2022-09-09T13:59:44;99228.06;;;23.19;54.35
64292;BME280;50628;51.008;13.658;2022-09-09T14:04:46;99234.91;;;23.52;54.37
64292;BME280;50628;51.008;13.658;2022-09-09T14:09:51;99232.53;;;23.44;55.17
64292;BME280;50628;51.008;13.658;2022-09-09T14:14:54;99234.03;;;23.15;56.31
64292;BME280;50628;51.008;13.658;2022-09-09T14:19:56;99234.47;;;23.11;55.95
64292;BME280;50628;51.008;13.658;2022-09-09T14:24:58;99223.88;;;23.48;55.33
64292;BME280;50628;51.008;13.658;2022-09-09T14:30:01;99228.63;;;23.46;53.72
64292;BME280;50628;51.008;13.658;2022-09-09T14:35:03;99221.97;;;23.37;53.88
64292;BME280;50628;51.008;13.658;2022-09-09T14:40:06;99223.00;;;23.54;53.61
64292;BME280;50628;51.008;13.658;2022-09-09T14:45:11;99203.78;;;23.78;53.50
64292;BME280;50628;51.008;13.658;2022-09-09T14:50:13;99206.47;;;23.71;50.66
64292;BME280;50628;51.008;13.658;2022-09-09T14:55:15;99199.41;;;23.46;50.97
64292;BME280;50628;51.008;13.658;2022-09-09T15:00:18;99208.03;;;23.42;51.47
64292;BME280;50628;51.008;13.658;2022-09-09T15:05:20;99213.84;;;23.32;52.08
64292;BME280;50628;51.008;13.658;2022-09-09T15:10:22;99217.97;;;23.28;54.34
64292;BME280;50628;51.008;13.658;2022-09-09T15:15:25;99205.06;;;23.31;56.31
64292;BME280;50628;51.008;13.658;2022-09-09T15:20:28;99195.69;;;23.29;55.64
64292;BME280;50628;51.008;13.658;2022-09-09T15:25:30;99205.38;;;23.60;56.04
64292;BME280;50628;51.008;13.658;2022-09-09T15:30:33;99206.47;;;23.52;54.37
64292;BME280;50628;51.008;13.658;2022-09-09T15:35:35;99211.41;;;23.30;54.81
64292;BME280;50628;51.008;13.658;2022-09-09T15:40:37;99220.47;;;23.23;55.34
64292;BME280;50628;51.008;13.658;2022-09-09T15:45:40;99212.41;;;23.11;56.14
64292;BME280;50628;51.008;13.658;2022-09-09T15:50:42;99208.66;;;22.94;57.72
64292;BME280;50628;51.008;13.658;2022-09-09T15:55:43;99190.16;;;22.80;57.89
64292;BME280;50628;51.008;13.658;2022-09-09T16:00:47;99201.28;;;22.71;60.24
64292;BME280;50628;51.008;13.658;2022-09-09T16:05:51;99203.97;;;22.64;60.33
64292;BME280;50628;51.008;13.658;2022-09-09T16:10:52;99203.75;;;22.40;63.92
64292;BME280;50628;51.008;13.658;2022-09-09T16:15:55;99201.38;;;22.25;65.07
64292;BME280;50628;51.008;13.658;2022-09-09T16:20:58;99206.31;;;22.09;68.82
64292;BME280;50628;51.008;13.658;2022-09-09T16:26:00;99214.16;;;21.90;68.66
64292;BME280;50628;51.008;13.658;2022-09-09T16:31:05;99218.00;;;21.94;68.11
64292;BME280;50628;51.008;13.658;2022-09-09T16:36:09;99221.66;;;22.00;65.33
64292;BME280;50628;51.008;13.658;2022-09-09T16:41:14;99226.13;;;21.99;64.73
64292;BME280;50628;51.008;13.658;2022-09-09T16:46:18;99233.28;;;21.99;63.35
64292;BME280;50628;51.008;13.658;2022-09-09T16:51:22;99234.75;;;21.81;62.77
64292;BME280;50628;51.008;13.658;2022-09-09T16:56:26;99242.28;;;21.91;63.22
64292;BME280;50628;51.008;13.658;2022-09-09T17:01:31;99255.34;;;21.86;62.15
64292;BME280;50628;51.008;13.658;2022-09-09T17:06:35;99238.03;;;21.77;62.83
64292;BME280;50628;51.008;13.658;2022-09-09T17:11:38;99253.56;;;21.60;62.54
64292;BME280;50628;51.008;13.658;2022-09-09T17:16:42;99254.41;;;21.47;63.42
64292;BME280;50628;51.008;13.658;2022-09-09T17:21:44;99253.38;;;21.28;62.65
64292;BME280;50628;51.008;13.658;2022-09-09T17:26:47;99260.91;;;21.11;61.61
64292;BME280;50628;51.008;13.658;2022-09-09T17:31:50;99260.09;;;20.98;63.50
64292;BME280;50628;51.008;13.658;2022-09-09T17:36:52;99269.06;;;20.77;65.46
64292;BME280;50628;51.008;13.658;2022-09-09T17:41:54;99270.03;;;20.62;68.30
64292;BME280;50628;51.008;13.658;2022-09-09T17:46:57;99282.97;;;20.44;67.17
64292;BME280;50628;51.008;13.658;2022-09-09T17:51:59;99282.06;;;20.17;66.12
64292;BME280;50628;51.008;13.658;2022-09-09T17:57:01;99299.44;;;19.98;65.03
64292;BME280;50628;51.008;13.658;2022-09-09T18:02:04;99304.88;;;19.89;63.60
64292;BME280;50628;51.008;13.658;2022-09-09T18:07:06;99312.34;;;19.79;63.35
64292;BME280;50628;51.008;13.658;2022-09-09T18:12:08;99315.88;;;19.65;63.96
64292;BME280;50628;51.008;13.658;2022-09-09T18:17:11;99323.94;;;19.57;64.38
64292;BME280;50628;51.008;13.658;2022-09-09T18:22:13;99320.09;;;19.59;64.25
64292;BME280;50628;51.008;13.658;2022-09-09T18:27:14;99315.94;;;19.43;65.70
64292;BME280;50628;51.008;13.658;2022-09-09T18:32:18;99319.31;;;19.37;65.86
64292;BME280;50628;51.008;13.658;2022-09-09T18:37:19;99320.47;;;19.28;67.01
64292;BME280;50628;51.008;13.658;2022-09-09T18:42:21;99319.53;;;19.14;67.13
64292;BME280;50628;51.008;13.658;2022-09-09T18:47:24;99328.09;;;19.16;67.62
64292;BME280;50628;51.008;13.658;2022-09-09T18:52:26;99327.59;;;19.06;67.63
64292;BME280;50628;51.008;13.658;2022-09-09T18:57:27;99334.19;;;18.95;67.80
64292;BME280;50628;51.008;13.658;2022-09-09T19:02:31;99337.94;;;18.86;68.83
64292;BME280;50628;51.008;13.658;2022-09-09T19:07:33;99327.94;;;18.81;68.41
64292;BME280;50628;51.008;13.658;2022-09-09T19:12:34;99338.44;;;18.60;71.33
64292;BME280;50628;51.008;13.658;2022-09-09T19:17:38;99344.25;;;18.55;72.99
64292;BME280;50628;51.008;13.658;2022-09-09T19:22:40;99348.00;;;18.46;76.92
64292;BME280;50628;51.008;13.658;2022-09-09T19:27:41;99344.63;;;18.52;77.60
64292;BME280;50628;51.008;13.658;2022-09-09T19:32:45;99351.47;;;18.32;80.47
64292;BME280;50628;51.008;13.658;2022-09-09T19:37:46;99358.59;;;18.02;81.86
64292;BME280;50628;51.008;13.658;2022-09-09T19:42:48;99354.19;;;17.94;85.02
64292;BME280;50628;51.008;13.658;2022-09-09T19:47:54;99353.25;;;17.72;89.38
64292;BME280;50628;51.008;13.658;2022-09-09T19:52:56;99356.63;;;17.81;90.87
64292;BME280;50628;51.008;13.658;2022-09-09T19:58:00;99352.59;;;17.70;90.69
64292;BME280;50628;51.008;13.658;2022-09-09T20:03:03;99357.91;;;17.47;94.85
64292;BME280;50628;51.008;13.658;2022-09-09T20:08:05;99359.44;;;17.41;95.60
64292;BME280;50628;51.008;13.658;2022-09-09T20:13:06;99369.09;;;17.49;96.77
64292;BME280;50628;51.008;13.658;2022-09-09T20:18:10;99363.00;;;17.25;99.57
64292;BME280;50628;51.008;13.658;2022-09-09T20:23:11;99368.56;;;17.30;99.46
64292;BME280;50628;51.008;13.658;2022-09-09T20:28:13;99371.31;;;17.14;100.00
64292;BME280;50628;51.008;13.658;2022-09-09T20:33:16;99384.69;;;17.04;100.00
64292;BME280;50628;51.008;13.658;2022-09-09T20:38:18;99392.88;;;17.09;100.00
64292;BME280;50628;51.008;13.658;2022-09-09T20:43:20;99397.47;;;17.07;100.00
64292;BME280;50628;51.008;13.658;2022-09-09T20:48:23;99394.41;;;16.96;100.00
64292;BME280;50628;51.008;13.658;2022-09-09T20:53:25;99396.16;;;17.12;100.00
64292;BME280;50628;51.008;13.658;2022-09-09T20:58:27;99404.72;;;17.05;100.00
64292;BME280;50628;51.008;13.658;2022-09-09T21:03:34;99400.84;;;16.93;100.00
64292;BME280;50628;51.008;13.658;2022-09-09T21:08:37;99405.47;;;16.91;100.00
64292;BME280;50628;51.008;13.658;2022-09-09T21:13:40;99402.66;;;16.93;100.00
64292;BME280;50628;51.008;13.658;2022-09-09T21:18:43;99407.47;;;16.89;100.00
64292;BME280;50628;51.008;13.658;2022-09-09T21:23:46;99402.06;;;16.74;100.00
64292;BME280;50628;51.008;13.658;2022-09-09T21:28:48;99403.22;;;16.72;100.00
64292;BME280;50628;51.008;13.658;2022-09-09T21:33:51;99413.53;;;16.90;100.00
64292;BME280;50628;51.008;13.658;2022-09-09T21:38:52;99420.66;;;16.81;100.00
64292;BME280;50628;51.008;13.658;2022-09-09T21:43:54;99417.19;;;16.72;100.00
64292;BME280;50628;51.008;13.658;2022-09-09T21:48:57;99399.16;;;16.69;100.00
64292;BME280;50628;51.008;13.658;2022-09-09T21:54:03;99402.63;;;16.61;100.00
64292;BME280;50628;51.008;13.658;2022-09-09T21:59:06;99414.06;;;16.29;100.00
64292;BME280;50628;51.008;13.658;2022-09-09T22:04:09;99396.16;;;16.41;100.00
64292;BME280;50628;51.008;13.658;2022-09-09T22:09:10;99401.41;;;16.41;100.00
64292;BME280;50628;51.008;13.658;2022-09-09T22:14:12;99407.34;;;16.27;100.00
64292;BME280;50628;51.008;13.658;2022-09-09T22:19:16;99405.59;;;16.11;100.00
64292;BME280;50628;51.008;13.658;2022-09-09T22:24:18;99397.06;;;15.92;100.00
64292;BME280;50628;51.008;13.658;2022-09-09T22:29:20;99389.53;;;15.89;100.00
64292;BME280;50628;51.008;13.658;2022-09-09T22:34:23;99390.69;;;15.87;100.00
64292;BME280;50628;51.008;13.658;2022-09-09T22:39:27;99384.94;;;15.91;100.00
64292;BME280;50628;51.008;13.658;2022-09-09T22:44:29;99377.38;;;15.96;100.00
64292;BME280;50628;51.008;13.658;2022-09-09T22:49:32;99375.13;;;15.85;100.00
64292;BME280;50628;51.008;13.658;2022-09-09T22:54:34;99375.78;;;15.79;100.00
64292;BME280;50628;51.008;13.658;2022-09-09T22:59:36;99366.59;;;15.83;100.00
64292;BME280;50628;51.008;13.658;2022-09-09T23:04:40;99367.22;;;15.69;100.00
64292;BME280;50628;51.008;13.658;2022-09-09T23:09:43;99361.50;;;15.73;100.00
64292;BME280;50628;51.008;13.658;2022-09-09T23:14:45;99359.34;;;15.69;100.00
64292;BME280;50628;51.008;13.658;2022-09-09T23:19:48;99365.28;;;15.63;100.00
64292;BME280;50628;51.008;13.658;2022-09-09T23:24:52;99370.69;;;15.61;100.00
64292;BME280;50628;51.008;13.658;2022-09-09T23:29:54;99363.16;;;15.58;100.00
64292;BME280;50628;51.008;13.658;2022-09-09T23:34:57;99366.94;;;15.47;100.00
64292;BME280;50628;51.008;13.658;2022-09-09T23:39:59;99359.69;;;15.49;100.00
64292;BME280;50628;51.008;13.658;2022-09-09T23:45:01;99362.31;;;15.66;100.00
64292;BME280;50628;51.008;13.658;2022-09-09T23:50:05;99362.00;;;15.77;100.00
64292;BME280;50628;51.008;13.658;2022-09-09T23:55:07;99366.25;;;15.70;100.00
